sensor_id;sensor_type;location;lat;lon;timestamp;temperature;humidity
15922;DHT22;8060;50.948;3.146;2024-02-23T00:01:36;6.80;99.90
15922;DHT22;8060;50.948;3.146;2024-02-23T00:04:04;6.90;99.90
15922;DHT22;8060;50.948;3.146;2024-02-23T00:06:34;6.90;99.90
15922;DHT22;8060;50.948;3.146;2024-02-23T00:09:02;6.80;99.90
15922;DHT22;8060;50.948;3.146;2024-02-23T00:11:31;6.80;99.90
15922;DHT22;8060;50.948;3.146;2024-02-23T00:14:00;6.80;99.90
15922;DHT22;8060;50.948;3.146;2024-02-23T00:16:29;6.80;99.90
15922;DHT22;8060;50.948;3.146;2024-02-23T00:18:59;6.70;99.90
15922;DHT22;8060;50.948;3.146;2024-02-23T00:21:27;6.70;99.90
15922;DHT22;8060;50.948;3.146;2024-02-23T00:23:55;6.80;99.90
15922;DHT22;8060;50.948;3.146;2024-02-23T00:26:23;6.70;99.90
15922;DHT22;8060;50.948;3.146;2024-02-23T00:55:54;6.40;99.90
15922;DHT22;8060;50.948;3.146;2024-02-23T00:58:22;6.30;99.90
15922;DHT22;8060;50.948;3.146;2024-02-23T01:00:50;6.30;99.90
15922;DHT22;8060;50.948;3.146;2024-02-23T01:03:18;6.20;99.90
15922;DHT22;8060;50.948;3.146;2024-02-23T01:05:47;6.10;99.90
15922;DHT22;8060;50.948;3.146;2024-02-23T01:08:15;6.10;99.90
15922;DHT22;8060;50.948;3.146;2024-02-23T01:10:44;6.10;99.90
15922;DHT22;8060;50.948;3.146;2024-02-23T01:13:14;6.00;99.90
15922;DHT22;8060;50.948;3.146;2024-02-23T01:15:42;6.10;99.90
15922;DHT22;8060;50.948;3.146;2024-02-23T01:18:10;6.00;99.90
15922;DHT22;8060;50.948;3.146;2024-02-23T01:20:39;6.10;99.90
15922;DHT22;8060;50.948;3.146;2024-02-23T01:23:07;6.10;99.90
15922;DHT22;8060;50.948;3.146;2024-02-23T01:25:35;6.10;99.90
15922;DHT22;8060;50.948;3.146;2024-02-23T01:28:04;6.00;99.90
15922;DHT22;8060;50.948;3.146;2024-02-23T01:30:37;6.10;99.90
15922;DHT22;8060;50.948;3.146;2024-02-23T01:33:05;6.00;99.90
15922;DHT22;8060;50.948;3.146;2024-02-23T01:35:34;6.00;99.90
15922;DHT22;8060;50.948;3.146;2024-02-23T01:38:03;6.00;99.90
15922;DHT22;8060;50.948;3.146;2024-02-23T01:40:32;6.00;99.90
15922;DHT22;8060;50.948;3.146;2024-02-23T01:43:04;6.00;99.90
15922;DHT22;8060;50.948;3.146;2024-02-23T01:45:32;6.10;99.90
15922;DHT22;8060;50.948;3.146;2024-02-23T01:48:02;6.10;99.90
15922;DHT22;8060;50.948;3.146;2024-02-23T01:50:30;6.10;99.90
15922;DHT22;8060;50.948;3.146;2024-02-23T01:53:01;6.20;99.90
15922;DHT22;8060;50.948;3.146;2024-02-23T01:55:31;6.20;99.90
15922;DHT22;8060;50.948;3.146;2024-02-23T01:58:03;6.30;99.90
15922;DHT22;8060;50.948;3.146;2024-02-23T02:00:35;6.30;99.90
15922;DHT22;8060;50.948;3.146;2024-02-23T02:03:05;6.30;99.90
15922;DHT22;8060;50.948;3.146;2024-02-23T02:05:38;6.30;99.90
15922;DHT22;8060;50.948;3.146;2024-02-23T02:08:07;6.30;99.90
15922;DHT22;8060;50.948;3.146;2024-02-23T02:10:35;6.30;99.90
15922;DHT22;8060;50.948;3.146;2024-02-23T02:13:05;6.30;99.90
15922;DHT22;8060;50.948;3.146;2024-02-23T02:15:33;6.20;99.90
15922;DHT22;8060;50.948;3.146;2024-02-23T02:18:02;6.20;99.90
15922;DHT22;8060;50.948;3.146;2024-02-23T02:20:33;6.20;99.90
15922;DHT22;8060;50.948;3.146;2024-02-23T02:23:01;6.30;99.90
15922;DHT22;8060;50.948;3.146;2024-02-23T02:25:30;6.30;99.90
15922;DHT22;8060;50.948;3.146;2024-02-23T02:27:58;6.30;99.90
15922;DHT22;8060;50.948;3.146;2024-02-23T02:30:26;6.30;99.90
15922;DHT22;8060;50.948;3.146;2024-02-23T02:32:54;6.30;99.90
15922;DHT22;8060;50.948;3.146;2024-02-23T02:35:22;6.30;99.90
15922;DHT22;8060;50.948;3.146;2024-02-23T02:37:52;6.30;99.90
15922;DHT22;8060;50.948;3.146;2024-02-23T02:40:20;6.30;99.90
15922;DHT22;8060;50.948;3.146;2024-02-23T02:42:48;6.30;99.90
15922;DHT22;8060;50.948;3.146;2024-02-23T02:45:16;6.30;99.90
15922;DHT22;8060;50.948;3.146;2024-02-23T02:47:46;6.30;99.90
15922;DHT22;8060;50.948;3.146;2024-02-23T02:50:15;6.40;99.90
15922;DHT22;8060;50.948;3.146;2024-02-23T02:52:43;6.40;99.90
15922;DHT22;8060;50.948;3.146;2024-02-23T02:55:13;6.30;99.90
15922;DHT22;8060;50.948;3.146;2024-02-23T02:57:41;6.30;99.90
15922;DHT22;8060;50.948;3.146;2024-02-23T03:00:11;6.30;99.90
15922;DHT22;8060;50.948;3.146;2024-02-23T03:02:39;6.30;99.90
15922;DHT22;8060;50.948;3.146;2024-02-23T03:05:08;6.30;99.90
15922;DHT22;8060;50.948;3.146;2024-02-23T03:07:36;6.30;99.90
15922;DHT22;8060;50.948;3.146;2024-02-23T03:10:05;6.20;99.90
15922;DHT22;8060;50.948;3.146;2024-02-23T03:12:35;6.20;99.90
15922;DHT22;8060;50.948;3.146;2024-02-23T03:15:04;6.20;99.90
15922;DHT22;8060;50.948;3.146;2024-02-23T03:17:33;6.20;99.90
15922;DHT22;8060;50.948;3.146;2024-02-23T03:20:01;6.20;99.90
15922;DHT22;8060;50.948;3.146;2024-02-23T03:22:32;6.20;99.90
15922;DHT22;8060;50.948;3.146;2024-02-23T03:25:00;6.30;99.90
15922;DHT22;8060;50.948;3.146;2024-02-23T03:27:37;6.30;99.90
15922;DHT22;8060;50.948;3.146;2024-02-23T03:30:06;6.40;99.90
15922;DHT22;8060;50.948;3.146;2024-02-23T03:32:35;6.30;99.90
15922;DHT22;8060;50.948;3.146;2024-02-23T03:35:07;6.40;99.90
15922;DHT22;8060;50.948;3.146;2024-02-23T03:37:36;6.40;99.90
15922;DHT22;8060;50.948;3.146;2024-02-23T03:40:05;6.40;99.90
15922;DHT22;8060;50.948;3.146;2024-02-23T03:42:34;6.40;99.90
15922;DHT22;8060;50.948;3.146;2024-02-23T03:45:05;6.50;99.90
15922;DHT22;8060;50.948;3.146;2024-02-23T03:47:33;6.50;99.90
15922;DHT22;8060;50.948;3.146;2024-02-23T03:50:01;6.50;99.90
15922;DHT22;8060;50.948;3.146;2024-02-23T03:52:30;6.50;99.90
15922;DHT22;8060;50.948;3.146;2024-02-23T03:54:58;6.50;99.90
15922;DHT22;8060;50.948;3.146;2024-02-23T03:57:26;6.50;99.90
15922;DHT22;8060;50.948;3.146;2024-02-23T03:59:55;6.60;99.90
15922;DHT22;8060;50.948;3.146;2024-02-23T04:02:24;6.60;99.90
15922;DHT22;8060;50.948;3.146;2024-02-23T04:04:53;6.60;99.90
15922;DHT22;8060;50.948;3.146;2024-02-23T04:07:21;6.60;99.90
15922;DHT22;8060;50.948;3.146;2024-02-23T04:09:50;6.60;99.90
15922;DHT22;8060;50.948;3.146;2024-02-23T04:12:21;6.60;99.90
15922;DHT22;8060;50.948;3.146;2024-02-23T04:14:49;6.50;99.90
15922;DHT22;8060;50.948;3.146;2024-02-23T04:17:18;6.50;99.90
15922;DHT22;8060;50.948;3.146;2024-02-23T04:19:47;6.50;99.90
15922;DHT22;8060;50.948;3.146;2024-02-23T04:22:15;6.50;99.90
15922;DHT22;8060;50.948;3.146;2024-02-23T04:24:43;6.60;99.90
15922;DHT22;8060;50.948;3.146;2024-02-23T04:27:12;6.60;99.90
15922;DHT22;8060;50.948;3.146;2024-02-23T04:29:40;6.60;99.90
15922;DHT22;8060;50.948;3.146;2024-02-23T04:32:08;6.60;99.90
15922;DHT22;8060;50.948;3.146;2024-02-23T04:34:36;6.50;99.90
15922;DHT22;8060;50.948;3.146;2024-02-23T04:37:06;6.40;99.90
15922;DHT22;8060;50.948;3.146;2024-02-23T04:39:34;6.40;99.90
15922;DHT22;8060;50.948;3.146;2024-02-23T04:42:02;6.30;99.90
15922;DHT22;8060;50.948;3.146;2024-02-23T04:44:30;6.30;99.90
15922;DHT22;8060;50.948;3.146;2024-02-23T04:46:58;6.30;99.90
15922;DHT22;8060;50.948;3.146;2024-02-23T04:49:27;6.30;99.90
15922;DHT22;8060;50.948;3.146;2024-02-23T04:51:55;6.30;99.90
15922;DHT22;8060;50.948;3.146;2024-02-23T04:54:25;6.30;99.90
15922;DHT22;8060;50.948;3.146;2024-02-23T04:56:53;6.30;99.90
15922;DHT22;8060;50.948;3.146;2024-02-23T04:59:21;6.30;99.90
15922;DHT22;8060;50.948;3.146;2024-02-23T05:01:49;6.30;99.90
15922;DHT22;8060;50.948;3.146;2024-02-23T05:04:17;6.20;99.90
15922;DHT22;8060;50.948;3.146;2024-02-23T05:06:45;6.30;99.90
15922;DHT22;8060;50.948;3.146;2024-02-23T05:09:14;6.30;99.90
15922;DHT22;8060;50.948;3.146;2024-02-23T05:11:44;6.30;99.90
15922;DHT22;8060;50.948;3.146;2024-02-23T05:14:12;6.30;99.90
15922;DHT22;8060;50.948;3.146;2024-02-23T05:16:41;6.30;99.90
15922;DHT22;8060;50.948;3.146;2024-02-23T05:19:09;6.40;99.90
15922;DHT22;8060;50.948;3.146;2024-02-23T05:21:37;6.40;99.90
15922;DHT22;8060;50.948;3.146;2024-02-23T05:24:05;6.30;99.90
15922;DHT22;8060;50.948;3.146;2024-02-23T05:26:33;6.30;99.90
15922;DHT22;8060;50.948;3.146;2024-02-23T05:29:03;6.30;99.90
15922;DHT22;8060;50.948;3.146;2024-02-23T05:31:45;6.30;99.90
15922;DHT22;8060;50.948;3.146;2024-02-23T05:34:14;6.30;99.90
15922;DHT22;8060;50.948;3.146;2024-02-23T05:36:43;6.30;99.90
15922;DHT22;8060;50.948;3.146;2024-02-23T05:39:12;6.30;99.90
15922;DHT22;8060;50.948;3.146;2024-02-23T05:41:42;6.30;99.90
15922;DHT22;8060;50.948;3.146;2024-02-23T05:44:11;6.40;99.90
15922;DHT22;8060;50.948;3.146;2024-02-23T05:46:42;6.30;99.90
15922;DHT22;8060;50.948;3.146;2024-02-23T05:49:11;6.30;99.90
15922;DHT22;8060;50.948;3.146;2024-02-23T05:51:39;6.30;99.90
15922;DHT22;8060;50.948;3.146;2024-02-23T05:54:08;6.40;99.90
15922;DHT22;8060;50.948;3.146;2024-02-23T05:56:36;6.40;99.90
15922;DHT22;8060;50.948;3.146;2024-02-23T05:59:04;6.30;99.90
15922;DHT22;8060;50.948;3.146;2024-02-23T06:01:34;6.30;99.90
15922;DHT22;8060;50.948;3.146;2024-02-23T06:04:03;6.30;99.90
15922;DHT22;8060;50.948;3.146;2024-02-23T06:06:32;6.40;99.90
15922;DHT22;8060;50.948;3.146;2024-02-23T06:09:00;6.30;99.90
15922;DHT22;8060;50.948;3.146;2024-02-23T06:11:29;6.40;99.90
15922;DHT22;8060;50.948;3.146;2024-02-23T06:13:57;6.50;99.90
15922;DHT22;8060;50.948;3.146;2024-02-23T06:16:26;6.40;99.90
15922;DHT22;8060;50.948;3.146;2024-02-23T06:18:55;6.50;99.90
15922;DHT22;8060;50.948;3.146;2024-02-23T06:21:23;6.50;99.90
15922;DHT22;8060;50.948;3.146;2024-02-23T06:23:52;6.50;99.90
15922;DHT22;8060;50.948;3.146;2024-02-23T06:26:20;6.50;99.90
15922;DHT22;8060;50.948;3.146;2024-02-23T06:28:49;6.50;99.90
15922;DHT22;8060;50.948;3.146;2024-02-23T06:31:17;6.60;99.90
15922;DHT22;8060;50.948;3.146;2024-02-23T06:33:45;6.60;99.90
15922;DHT22;8060;50.948;3.146;2024-02-23T06:36:18;6.60;99.90
15922;DHT22;8060;50.948;3.146;2024-02-23T06:38:47;6.50;99.90
15922;DHT22;8060;50.948;3.146;2024-02-23T06:41:15;6.50;99.90
15922;DHT22;8060;50.948;3.146;2024-02-23T06:43:43;6.50;99.90
15922;DHT22;8060;50.948;3.146;2024-02-23T06:46:11;6.50;99.90
15922;DHT22;8060;50.948;3.146;2024-02-23T06:48:40;6.40;99.90
15922;DHT22;8060;50.948;3.146;2024-02-23T06:51:08;6.40;99.90
15922;DHT22;8060;50.948;3.146;2024-02-23T06:53:38;6.40;99.90
15922;DHT22;8060;50.948;3.146;2024-02-23T06:56:06;6.40;99.90
15922;DHT22;8060;50.948;3.146;2024-02-23T06:58:35;6.40;99.90
15922;DHT22;8060;50.948;3.146;2024-02-23T07:01:03;6.40;99.90
15922;DHT22;8060;50.948;3.146;2024-02-23T07:03:33;6.40;99.90
15922;DHT22;8060;50.948;3.146;2024-02-23T07:06:02;6.40;99.90
15922;DHT22;8060;50.948;3.146;2024-02-23T07:08:31;6.40;99.90
15922;DHT22;8060;50.948;3.146;2024-02-23T07:11:00;6.40;99.90
15922;DHT22;8060;50.948;3.146;2024-02-23T07:13:29;6.40;99.90
15922;DHT22;8060;50.948;3.146;2024-02-23T07:15:57;6.50;99.90
15922;DHT22;8060;50.948;3.146;2024-02-23T07:18:26;6.40;99.90
15922;DHT22;8060;50.948;3.146;2024-02-23T07:20:54;6.50;99.90
15922;DHT22;8060;50.948;3.146;2024-02-23T07:23:22;6.40;99.90
15922;DHT22;8060;50.948;3.146;2024-02-23T07:25:50;6.40;99.90
15922;DHT22;8060;50.948;3.146;2024-02-23T07:28:20;6.50;99.90
15922;DHT22;8060;50.948;3.146;2024-02-23T07:30:50;6.50;99.90
15922;DHT22;8060;50.948;3.146;2024-02-23T07:33:19;6.50;99.90
15922;DHT22;8060;50.948;3.146;2024-02-23T07:35:48;6.50;99.90
15922;DHT22;8060;50.948;3.146;2024-02-23T07:38:16;6.50;99.90
15922;DHT22;8060;50.948;3.146;2024-02-23T07:40:45;6.60;99.90
15922;DHT22;8060;50.948;3.146;2024-02-23T07:43:13;6.60;99.90
15922;DHT22;8060;50.948;3.146;2024-02-23T07:45:42;6.60;99.90
15922;DHT22;8060;50.948;3.146;2024-02-23T07:48:11;6.60;99.90
15922;DHT22;8060;50.948;3.146;2024-02-23T07:50:39;6.70;99.90
15922;DHT22;8060;50.948;3.146;2024-02-23T07:53:07;6.60;99.90
15922;DHT22;8060;50.948;3.146;2024-02-23T07:55:35;6.70;99.90
15922;DHT22;8060;50.948;3.146;2024-02-23T07:58:04;6.70;99.90
15922;DHT22;8060;50.948;3.146;2024-02-23T08:00:32;6.80;99.90
15922;DHT22;8060;50.948;3.146;2024-02-23T08:03:03;6.80;99.90
15922;DHT22;8060;50.948;3.146;2024-02-23T08:05:31;6.90;99.90
15922;DHT22;8060;50.948;3.146;2024-02-23T08:07:59;6.80;99.90
15922;DHT22;8060;50.948;3.146;2024-02-23T08:10:28;6.80;99.90
15922;DHT22;8060;50.948;3.146;2024-02-23T08:12:56;6.80;99.90
15922;DHT22;8060;50.948;3.146;2024-02-23T08:15:24;6.80;99.90
15922;DHT22;8060;50.948;3.146;2024-02-23T08:17:52;6.80;99.90
15922;DHT22;8060;50.948;3.146;2024-02-23T08:20:22;6.80;99.90
15922;DHT22;8060;50.948;3.146;2024-02-23T08:22:51;6.90;99.90
15922;DHT22;8060;50.948;3.146;2024-02-23T08:25:19;6.80;99.90
15922;DHT22;8060;50.948;3.146;2024-02-23T08:27:47;6.80;99.90
15922;DHT22;8060;50.948;3.146;2024-02-23T08:30:15;6.80;99.90
15922;DHT22;8060;50.948;3.146;2024-02-23T08:32:44;6.90;99.90
15922;DHT22;8060;50.948;3.146;2024-02-23T08:35:12;6.80;99.90
15922;DHT22;8060;50.948;3.146;2024-02-23T08:37:43;6.80;99.90
15922;DHT22;8060;50.948;3.146;2024-02-23T08:40:12;6.80;99.90
15922;DHT22;8060;50.948;3.146;2024-02-23T08:42:40;6.80;99.90
15922;DHT22;8060;50.948;3.146;2024-02-23T08:45:09;6.90;99.90
15922;DHT22;8060;50.948;3.146;2024-02-23T08:47:39;6.90;99.90
15922;DHT22;8060;50.948;3.146;2024-02-23T08:50:08;6.90;99.90
15922;DHT22;8060;50.948;3.146;2024-02-23T08:52:36;7.00;99.90
15922;DHT22;8060;50.948;3.146;2024-02-23T08:55:06;7.00;99.90
15922;DHT22;8060;50.948;3.146;2024-02-23T08:57:34;7.00;99.90
15922;DHT22;8060;50.948;3.146;2024-02-23T09:00:03;7.00;99.90
15922;DHT22;8060;50.948;3.146;2024-02-23T09:02:33;7.10;99.90
15922;DHT22;8060;50.948;3.146;2024-02-23T09:05:02;7.20;99.90
15922;DHT22;8060;50.948;3.146;2024-02-23T09:07:31;7.20;99.90
15922;DHT22;8060;50.948;3.146;2024-02-23T09:10:00;7.10;99.90
15922;DHT22;8060;50.948;3.146;2024-02-23T09:12:29;7.00;99.90
15922;DHT22;8060;50.948;3.146;2024-02-23T09:14:57;7.10;99.90
15922;DHT22;8060;50.948;3.146;2024-02-23T09:17:25;7.10;99.90
15922;DHT22;8060;50.948;3.146;2024-02-23T09:19:54;7.10;99.90
15922;DHT22;8060;50.948;3.146;2024-02-23T09:22:23;7.10;99.90
15922;DHT22;8060;50.948;3.146;2024-02-23T09:24:51;7.10;99.90
15922;DHT22;8060;50.948;3.146;2024-02-23T09:27:20;7.20;99.90
15922;DHT22;8060;50.948;3.146;2024-02-23T09:29:50;7.20;99.90
15922;DHT22;8060;50.948;3.146;2024-02-23T09:32:18;7.20;99.90
15922;DHT22;8060;50.948;3.146;2024-02-23T09:34:46;7.20;99.90
15922;DHT22;8060;50.948;3.146;2024-02-23T09:37:14;7.20;99.90
15922;DHT22;8060;50.948;3.146;2024-02-23T09:39:42;7.20;99.90
15922;DHT22;8060;50.948;3.146;2024-02-23T09:42:10;7.30;99.90
15922;DHT22;8060;50.948;3.146;2024-02-23T09:44:39;7.30;99.90
15922;DHT22;8060;50.948;3.146;2024-02-23T09:47:10;7.40;99.90
15922;DHT22;8060;50.948;3.146;2024-02-23T09:49:40;7.40;99.90
15922;DHT22;8060;50.948;3.146;2024-02-23T09:52:09;7.40;99.90
15922;DHT22;8060;50.948;3.146;2024-02-23T09:54:37;7.40;99.90
15922;DHT22;8060;50.948;3.146;2024-02-23T09:57:08;7.50;99.90
15922;DHT22;8060;50.948;3.146;2024-02-23T09:59:37;7.60;99.90
15922;DHT22;8060;50.948;3.146;2024-02-23T10:02:07;7.70;99.90
15922;DHT22;8060;50.948;3.146;2024-02-23T10:04:38;7.70;99.90
15922;DHT22;8060;50.948;3.146;2024-02-23T10:07:07;7.70;99.90
15922;DHT22;8060;50.948;3.146;2024-02-23T10:09:36;7.70;99.90
15922;DHT22;8060;50.948;3.146;2024-02-23T10:12:05;7.80;99.90
15922;DHT22;8060;50.948;3.146;2024-02-23T10:14:34;7.80;99.90
15922;DHT22;8060;50.948;3.146;2024-02-23T10:17:02;7.90;99.90
15922;DHT22;8060;50.948;3.146;2024-02-23T10:19:30;7.90;99.90
15922;DHT22;8060;50.948;3.146;2024-02-23T10:22:00;7.80;99.90
15922;DHT22;8060;50.948;3.146;2024-02-23T10:24:29;7.90;99.90
15922;DHT22;8060;50.948;3.146;2024-02-23T10:26:57;7.80;99.90
15922;DHT22;8060;50.948;3.146;2024-02-23T10:29:26;7.70;99.90
15922;DHT22;8060;50.948;3.146;2024-02-23T10:31:57;7.80;99.90
15922;DHT22;8060;50.948;3.146;2024-02-23T10:34:26;7.80;99.90
15922;DHT22;8060;50.948;3.146;2024-02-23T10:36:55;7.70;99.90
15922;DHT22;8060;50.948;3.146;2024-02-23T10:39:28;7.80;99.90
15922;DHT22;8060;50.948;3.146;2024-02-23T10:41:57;7.80;99.90
15922;DHT22;8060;50.948;3.146;2024-02-23T10:44:28;7.80;99.90
15922;DHT22;8060;50.948;3.146;2024-02-23T10:46:58;7.80;99.90
15922;DHT22;8060;50.948;3.146;2024-02-23T10:49:27;7.70;99.90
15922;DHT22;8060;50.948;3.146;2024-02-23T10:51:56;7.70;99.90
15922;DHT22;8060;50.948;3.146;2024-02-23T10:54:26;7.70;99.90
15922;DHT22;8060;50.948;3.146;2024-02-23T10:56:54;7.70;99.90
15922;DHT22;8060;50.948;3.146;2024-02-23T10:59:23;7.70;99.90
15922;DHT22;8060;50.948;3.146;2024-02-23T11:01:53;7.70;99.90
15922;DHT22;8060;50.948;3.146;2024-02-23T11:04:24;7.80;99.90
15922;DHT22;8060;50.948;3.146;2024-02-23T11:06:54;7.80;99.90
15922;DHT22;8060;50.948;3.146;2024-02-23T11:09:27;7.90;99.90
15922;DHT22;8060;50.948;3.146;2024-02-23T11:11:57;7.80;99.90
15922;DHT22;8060;50.948;3.146;2024-02-23T11:14:30;7.80;99.90
15922;DHT22;8060;50.948;3.146;2024-02-23T11:16:59;7.80;99.90
15922;DHT22;8060;50.948;3.146;2024-02-23T11:19:35;7.90;99.90
15922;DHT22;8060;50.948;3.146;2024-02-23T11:22:04;7.90;99.90
15922;DHT22;8060;50.948;3.146;2024-02-23T11:24:44;7.90;99.90
15922;DHT22;8060;50.948;3.146;2024-02-23T11:27:14;8.00;99.90
15922;DHT22;8060;50.948;3.146;2024-02-23T11:29:45;8.00;99.90
15922;DHT22;8060;50.948;3.146;2024-02-23T11:32:14;8.10;99.90
15922;DHT22;8060;50.948;3.146;2024-02-23T11:34:54;8.10;99.90
15922;DHT22;8060;50.948;3.146;2024-02-23T11:37:23;8.10;99.90
15922;DHT22;8060;50.948;3.146;2024-02-23T11:39:53;8.00;99.90
15922;DHT22;8060;50.948;3.146;2024-02-23T11:42:23;8.10;99.90
15922;DHT22;8060;50.948;3.146;2024-02-23T11:44:52;8.00;99.90
15922;DHT22;8060;50.948;3.146;2024-02-23T11:47:21;8.00;99.90
15922;DHT22;8060;50.948;3.146;2024-02-23T11:49:49;8.00;99.90
15922;DHT22;8060;50.948;3.146;2024-02-23T11:52:17;8.10;99.90
15922;DHT22;8060;50.948;3.146;2024-02-23T11:54:46;8.20;99.90
15922;DHT22;8060;50.948;3.146;2024-02-23T11:57:16;8.20;99.90
15922;DHT22;8060;50.948;3.146;2024-02-23T11:59:44;8.20;99.90
15922;DHT22;8060;50.948;3.146;2024-02-23T12:02:13;8.20;99.90
15922;DHT22;8060;50.948;3.146;2024-02-23T12:04:41;8.10;99.90
15922;DHT22;8060;50.948;3.146;2024-02-23T12:07:09;8.20;99.90
15922;DHT22;8060;50.948;3.146;2024-02-23T12:09:37;8.20;99.90
15922;DHT22;8060;50.948;3.146;2024-02-23T12:12:08;8.30;99.90
15922;DHT22;8060;50.948;3.146;2024-02-23T12:14:37;8.30;99.90
15922;DHT22;8060;50.948;3.146;2024-02-23T12:17:08;8.40;99.90
15922;DHT22;8060;50.948;3.146;2024-02-23T12:19:38;8.60;99.90
15922;DHT22;8060;50.948;3.146;2024-02-23T12:22:07;9.00;99.90
15922;DHT22;8060;50.948;3.146;2024-02-23T12:24:35;9.20;99.90
15922;DHT22;8060;50.948;3.146;2024-02-23T12:27:04;9.40;99.90
15922;DHT22;8060;50.948;3.146;2024-02-23T12:29:32;9.40;99.90
15922;DHT22;8060;50.948;3.146;2024-02-23T12:32:06;9.60;99.90
15922;DHT22;8060;50.948;3.146;2024-02-23T12:34:35;9.90;99.90
15922;DHT22;8060;50.948;3.146;2024-02-23T12:37:03;10.10;99.90
15922;DHT22;8060;50.948;3.146;2024-02-23T12:39:32;10.10;99.90
15922;DHT22;8060;50.948;3.146;2024-02-23T12:42:00;10.00;99.90
15922;DHT22;8060;50.948;3.146;2024-02-23T12:44:28;10.00;99.90
15922;DHT22;8060;50.948;3.146;2024-02-23T12:46:56;9.80;99.90
15922;DHT22;8060;50.948;3.146;2024-02-23T12:49:26;9.70;99.90
15922;DHT22;8060;50.948;3.146;2024-02-23T12:51:54;9.50;99.90
15922;DHT22;8060;50.948;3.146;2024-02-23T12:54:22;9.20;99.90
15922;DHT22;8060;50.948;3.146;2024-02-23T12:56:50;8.90;99.90
15922;DHT22;8060;50.948;3.146;2024-02-23T12:59:18;8.70;99.90
15922;DHT22;8060;50.948;3.146;2024-02-23T13:01:47;8.70;99.90
15922;DHT22;8060;50.948;3.146;2024-02-23T13:04:18;8.80;99.90
15922;DHT22;8060;50.948;3.146;2024-02-23T13:06:48;8.80;99.90
15922;DHT22;8060;50.948;3.146;2024-02-23T13:09:16;8.80;99.90
15922;DHT22;8060;50.948;3.146;2024-02-23T13:11:44;8.80;99.90
15922;DHT22;8060;50.948;3.146;2024-02-23T13:14:15;8.80;99.90
15922;DHT22;8060;50.948;3.146;2024-02-23T13:16:43;9.00;99.90
15922;DHT22;8060;50.948;3.146;2024-02-23T13:19:11;9.30;99.90
15922;DHT22;8060;50.948;3.146;2024-02-23T13:21:39;9.60;99.90
15922;DHT22;8060;50.948;3.146;2024-02-23T13:24:09;10.00;99.90
15922;DHT22;8060;50.948;3.146;2024-02-23T13:26:37;10.40;99.90
15922;DHT22;8060;50.948;3.146;2024-02-23T13:29:06;10.20;99.90
15922;DHT22;8060;50.948;3.146;2024-02-23T13:31:34;10.10;99.90
15922;DHT22;8060;50.948;3.146;2024-02-23T13:34:05;10.00;99.90
15922;DHT22;8060;50.948;3.146;2024-02-23T13:36:33;9.90;99.90
15922;DHT22;8060;50.948;3.146;2024-02-23T13:39:02;9.80;99.90
15922;DHT22;8060;50.948;3.146;2024-02-23T13:41:31;9.50;99.90
15922;DHT22;8060;50.948;3.146;2024-02-23T13:44:01;9.20;99.90
15922;DHT22;8060;50.948;3.146;2024-02-23T13:46:30;8.80;99.90
15922;DHT22;8060;50.948;3.146;2024-02-23T13:49:05;8.70;99.90
15922;DHT22;8060;50.948;3.146;2024-02-23T13:51:34;8.50;99.90
15922;DHT22;8060;50.948;3.146;2024-02-23T13:54:02;8.50;99.90
15922;DHT22;8060;50.948;3.146;2024-02-23T13:56:32;8.50;99.90
15922;DHT22;8060;50.948;3.146;2024-02-23T13:59:00;8.60;99.90
15922;DHT22;8060;50.948;3.146;2024-02-23T14:01:29;8.60;99.90
15922;DHT22;8060;50.948;3.146;2024-02-23T14:03:57;8.70;99.90
15922;DHT22;8060;50.948;3.146;2024-02-23T14:06:25;9.10;99.90
15922;DHT22;8060;50.948;3.146;2024-02-23T14:08:53;9.90;99.90
15922;DHT22;8060;50.948;3.146;2024-02-23T14:11:22;10.50;99.90
15922;DHT22;8060;50.948;3.146;2024-02-23T14:13:51;11.40;99.90
15922;DHT22;8060;50.948;3.146;2024-02-23T14:16:20;12.20;99.90
15922;DHT22;8060;50.948;3.146;2024-02-23T14:18:50;12.00;99.90
15922;DHT22;8060;50.948;3.146;2024-02-23T14:21:18;11.60;99.90
15922;DHT22;8060;50.948;3.146;2024-02-23T14:23:48;11.00;99.90
15922;DHT22;8060;50.948;3.146;2024-02-23T14:26:16;10.50;99.90
15922;DHT22;8060;50.948;3.146;2024-02-23T14:28:44;10.00;99.90
15922;DHT22;8060;50.948;3.146;2024-02-23T14:31:13;9.80;99.90
15922;DHT22;8060;50.948;3.146;2024-02-23T14:33:42;9.40;99.90
15922;DHT22;8060;50.948;3.146;2024-02-23T14:36:13;9.20;99.90
15922;DHT22;8060;50.948;3.146;2024-02-23T14:38:42;9.00;99.90
15922;DHT22;8060;50.948;3.146;2024-02-23T14:41:10;8.80;99.90
15922;DHT22;8060;50.948;3.146;2024-02-23T14:43:38;8.70;99.90
15922;DHT22;8060;50.948;3.146;2024-02-23T14:46:06;8.50;99.90
15922;DHT22;8060;50.948;3.146;2024-02-23T14:48:37;8.50;99.90
15922;DHT22;8060;50.948;3.146;2024-02-23T14:51:05;8.60;99.90
15922;DHT22;8060;50.948;3.146;2024-02-23T14:53:36;8.90;99.90
15922;DHT22;8060;50.948;3.146;2024-02-23T14:56:05;9.70;99.90
15922;DHT22;8060;50.948;3.146;2024-02-23T14:58:33;10.60;99.90
15922;DHT22;8060;50.948;3.146;2024-02-23T15:01:01;11.60;99.90
15922;DHT22;8060;50.948;3.146;2024-02-23T15:03:30;12.60;99.90
15922;DHT22;8060;50.948;3.146;2024-02-23T15:06:00;13.90;99.90
15922;DHT22;8060;50.948;3.146;2024-02-23T15:08:29;14.70;99.90
15922;DHT22;8060;50.948;3.146;2024-02-23T15:10:58;13.80;99.90
15922;DHT22;8060;50.948;3.146;2024-02-23T15:13:26;13.80;99.90
15922;DHT22;8060;50.948;3.146;2024-02-23T15:15:54;13.50;99.90
15922;DHT22;8060;50.948;3.146;2024-02-23T15:18:23;12.90;99.90
15922;DHT22;8060;50.948;3.146;2024-02-23T15:20:51;12.20;99.90
15922;DHT22;8060;50.948;3.146;2024-02-23T15:23:21;11.70;99.90
15922;DHT22;8060;50.948;3.146;2024-02-23T15:25:50;11.30;99.90
15922;DHT22;8060;50.948;3.146;2024-02-23T15:28:32;10.90;99.90
15922;DHT22;8060;50.948;3.146;2024-02-23T15:31:01;10.60;99.90
15922;DHT22;8060;50.948;3.146;2024-02-23T15:33:29;10.30;99.90
15922;DHT22;8060;50.948;3.146;2024-02-23T15:35:58;10.10;99.90
15922;DHT22;8060;50.948;3.146;2024-02-23T15:38:28;9.90;99.90
15922;DHT22;8060;50.948;3.146;2024-02-23T15:40:56;9.50;99.90
15922;DHT22;8060;50.948;3.146;2024-02-23T15:43:24;9.30;99.90
15922;DHT22;8060;50.948;3.146;2024-02-23T15:45:55;9.10;99.90
15922;DHT22;8060;50.948;3.146;2024-02-23T15:48:23;9.00;99.90
15922;DHT22;8060;50.948;3.146;2024-02-23T15:50:51;8.90;99.90
15922;DHT22;8060;50.948;3.146;2024-02-23T15:53:41;8.80;99.90
15922;DHT22;8060;50.948;3.146;2024-02-23T15:56:09;8.70;99.90
15922;DHT22;8060;50.948;3.146;2024-02-23T15:58:38;8.50;99.90
15922;DHT22;8060;50.948;3.146;2024-02-23T16:01:06;8.40;99.90
15922;DHT22;8060;50.948;3.146;2024-02-23T16:03:34;8.20;99.90
15922;DHT22;8060;50.948;3.146;2024-02-23T16:06:03;8.10;99.90
15922;DHT22;8060;50.948;3.146;2024-02-23T16:08:41;8.00;99.90
15922;DHT22;8060;50.948;3.146;2024-02-23T16:11:11;7.90;99.90
15922;DHT22;8060;50.948;3.146;2024-02-23T16:13:39;7.90;99.90
15922;DHT22;8060;50.948;3.146;2024-02-23T16:16:08;7.90;99.90
15922;DHT22;8060;50.948;3.146;2024-02-23T16:18:37;7.90;99.90
15922;DHT22;8060;50.948;3.146;2024-02-23T16:21:05;7.90;99.90
15922;DHT22;8060;50.948;3.146;2024-02-23T16:23:33;7.90;99.90
15922;DHT22;8060;50.948;3.146;2024-02-23T16:26:03;7.90;99.90
15922;DHT22;8060;50.948;3.146;2024-02-23T16:28:32;7.90;99.90
15922;DHT22;8060;50.948;3.146;2024-02-23T16:31:00;7.80;99.90
15922;DHT22;8060;50.948;3.146;2024-02-23T16:33:28;7.80;99.90
15922;DHT22;8060;50.948;3.146;2024-02-23T16:35:56;7.80;99.90
15922;DHT22;8060;50.948;3.146;2024-02-23T16:38:26;7.70;99.90